Time,TemperatureF,DewpointF,PressureIn,WindDirection,WindDirectionDegrees,WindSpeedMPH,WindSpeedGustMPH,Humidity,HourlyPrecipIn,Conditions,Clouds,dailyrainin,SoftwareType,DateUTC
2013-05-10 00:14:00,57.9,56.0,29.93,NE,53,0.0,-999.0,92,-99.99,,,0.00,weatherlink.com 1.10,2013-05-10 06:14:00,
2013-05-10 00:29:00,58.7,56.0,29.93,NE,53,0.0,-999.0,92,-99.99,,,0.00,weatherlink.com 1.10,2013-05-10 06:29:00,
2013-05-10 00:44:00,58.7,56.0,29.91,NE,53,0.0,-999.0,92,-99.99,,,0.00,weatherlink.com 1.10,2013-05-10 06:44:00,
2013-05-10 00:59:00,58.7,56.0,29.90,NE,53,0.0,-999.0,92,-99.99,,,0.00,weatherlink.com 1.10,2013-05-10 06:59:00,
2013-05-10 01:14:00,58.7,56.0,29.89,NE,53,0.0,-999.0,92,-99.99,,,0.00,weatherlink.com 1.10,2013-05-10 07:14:00,
2013-05-10 01:29:00,58.7,56.0,29.89,NE,53,0.0,-999.0,92,-99.99,,,0.00,weatherlink.com 1.10,2013-05-10 07:29:00,
2013-05-10 01:44:00,59.0,57.0,29.88,NE,53,0.0,-999.0,92,-99.99,,,0.00,weatherlink.com 1.10,2013-05-10 07:44:00,
2013-05-10 01:59:00,58.9,57.0,29.87,NE,53,0.0,-999.0,92,-99.99,,,0.00,weatherlink.com 1.10,2013-05-10 07:59:00,
2013-05-10 02:14:00,59.0,57.0,29.88,NE,53,0.0,-999.0,92,-99.99,,,0.00,weatherlink.com 1.10,2013-05-10 08:14:00,
2013-05-10 02:29:00,58.9,57.0,29.87,NE,53,0.0,-999.0,93,-99.99,,,0.00,weatherlink.com 1.10,2013-05-10 08:29:00,
2013-05-10 02:44:00,58.7,56.0,29.86,NE,53,0.0,-999.0,92,-99.99,,,0.00,weatherlink.com 1.10,2013-05-10 08:44:00,
2013-05-10 02:59:00,58.7,56.0,29.89,NE,53,0.0,-999.0,92,-99.99,,,0.00,weatherlink.com 1.10,2013-05-10 08:59:00,
2013-05-10 03:14:00,59.6,58.0,29.93,WNW,301,0.0,-999.0,93,-99.99,,,0.00,weatherlink.com 1.10,2013-05-10 09:14:00,
2013-05-10 03:29:00,60.8,58.0,29.95,NW,318,0.0,-999.0,89,-99.99,,,0.00,weatherlink.com 1.10,2013-05-10 09:29:00,
2013-05-10 03:44:00,61.7,58.0,29.96,NNW,340,0.0,-999.0,86,-99.99,,,0.03,weatherlink.com 1.10,2013-05-10 09:44:00,
2013-05-10 03:59:00,60.6,57.0,29.93,NE,42,0.0,-999.0,87,-99.99,,,0.13,weatherlink.com 1.10,2013-05-10 09:59:00,
2013-05-10 04:14:00,59.5,56.0,29.91,NE,38,0.0,-999.0,88,-99.99,,,0.14,weatherlink.com 1.10,2013-05-10 10:14:00,
2013-05-10 04:29:00,59.0,56.0,29.92,NE,38,0.0,-999.0,89,-99.99,,,0.14,weatherlink.com 1.10,2013-05-10 10:29:00,
2013-05-10 04:44:00,59.0,56.0,29.98,WSW,242,0.0,-999.0,90,-99.99,,,0.14,weatherlink.com 1.10,2013-05-10 10:44:00,
2013-05-10 04:59:00,59.8,57.0,29.94,WNW,298,0.0,-999.0,91,-99.99,,,0.22,weatherlink.com 1.10,2013-05-10 10:59:00,
2013-05-10 05:14:00,60.0,57.0,29.99,NNE,24,0.0,-999.0,91,-99.99,,,0.22,weatherlink.com 1.10,2013-05-10 11:14:00,
2013-05-10 05:29:00,60.4,58.0,30.02,NW,305,0.0,-999.0,91,-99.99,,,0.23,weatherlink.com 1.10,2013-05-10 11:29:00,
2013-05-10 05:44:00,60.6,58.0,30.03,West,269,0.0,-999.0,91,-99.99,,,0.25,weatherlink.com 1.10,2013-05-10 11:44:00,
2013-05-10 05:59:00,60.7,58.0,30.01,NW,313,0.0,-999.0,91,-99.99,,,0.28,weatherlink.com 1.10,2013-05-10 11:59:00,
2013-05-10 06:14:00,59.9,57.0,29.95,NE,52,0.0,-999.0,90,-99.99,,,0.32,weatherlink.com 1.10,2013-05-10 12:14:00,
2013-05-10 06:29:00,60.0,57.0,29.94,NNE,19,0.0,-999.0,90,-99.99,,,0.32,weatherlink.com 1.10,2013-05-10 12:29:00,
2013-05-10 06:44:00,60.0,57.0,29.94,ENE,58,0.0,-999.0,89,-99.99,,,0.32,weatherlink.com 1.10,2013-05-10 12:44:00,
2013-05-10 06:59:00,60.0,57.0,29.94,SSE,151,0.0,-999.0,90,-99.99,,,0.32,weatherlink.com 1.10,2013-05-10 12:59:00,
2013-05-10 07:14:00,60.2,57.0,29.94,North,1,0.0,-999.0,90,-99.99,,,0.32,weatherlink.com 1.10,2013-05-10 13:14:00,
2013-05-10 07:29:00,60.4,58.0,29.94,NNE,14,0.0,-999.0,90,-99.99,,,0.32,weatherlink.com 1.10,2013-05-10 13:29:00,
2013-05-10 07:44:00,60.7,58.0,29.96,North,357,0.0,-999.0,90,-99.99,,,0.32,weatherlink.com 1.10,2013-05-10 13:44:00,
2013-05-10 07:59:00,61.2,58.0,29.95,North,358,0.0,-999.0,90,-99.99,,,0.32,weatherlink.com 1.10,2013-05-10 13:59:00,
2013-05-10 08:14:00,61.7,59.0,29.97,North,358,0.0,-999.0,90,-99.99,,,0.32,weatherlink.com 1.10,2013-05-10 14:14:00,
2013-05-10 08:29:00,62.3,59.0,29.97,NNW,346,0.0,-999.0,89,-99.99,,,0.32,weatherlink.com 1.10,2013-05-10 14:29:00,
2013-05-10 08:44:00,62.7,60.0,29.97,NNE,17,0.0,-999.0,89,-99.99,,,0.32,weatherlink.com 1.10,2013-05-10 14:44:00,
2013-05-10 08:59:00,64.2,60.0,29.97,NE,51,0.0,-999.0,87,-99.99,,,0.32,weatherlink.com 1.10,2013-05-10 14:59:00,
2013-05-10 09:14:00,64.4,60.0,29.98,ENE,71,0.0,-999.0,84,-99.99,,,0.32,weatherlink.com 1.10,2013-05-10 15:14:00,
2013-05-10 09:29:00,65.0,60.0,29.98,ENE,78,0.0,-999.0,85,-99.99,,,0.32,weatherlink.com 1.10,2013-05-10 15:29:00,
2013-05-10 09:44:00,66.9,62.0,29.98,ENE,73,0.0,-999.0,83,-99.99,,,0.32,weatherlink.com 1.10,2013-05-10 15:44:00,
2013-05-10 09:59:00,68.6,62.0,29.97,SE,130,0.0,-999.0,79,-99.99,,,0.32,weatherlink.com 1.10,2013-05-10 15:59:00,
2013-05-10 10:14:00,70.8,63.0,29.97,NE,49,0.0,-999.0,75,-99.99,,,0.32,weatherlink.com 1.10,2013-05-10 16:14:00,
2013-05-10 10:29:00,72.7,62.0,29.96,ESE,122,0.0,-999.0,70,-99.99,,,0.32,weatherlink.com 1.10,2013-05-10 16:29:00,
2013-05-10 10:44:00,72.3,62.0,29.97,NW,325,0.0,-999.0,69,-99.99,,,0.32,weatherlink.com 1.10,2013-05-10 16:44:00,
2013-05-10 10:59:00,74.0,63.0,29.98,East,86,0.0,-999.0,68,-99.99,,,0.32,weatherlink.com 1.10,2013-05-10 16:59:00,
2013-05-10 11:14:00,74.8,61.0,29.97,NNW,344,0.0,-999.0,63,-99.99,,,0.32,weatherlink.com 1.10,2013-05-10 17:14:00,
2013-05-10 11:29:00,76.3,62.0,29.97,North,358,0.0,-999.0,62,-99.99,,,0.32,weatherlink.com 1.10,2013-05-10 17:29:00,
2013-05-10 11:44:00,77.5,61.0,29.97,North,9,0.0,-999.0,57,-99.99,,,0.32,weatherlink.com 1.10,2013-05-10 17:44:00,
2013-05-10 11:59:00,78.5,62.0,29.97,North,9,0.0,-999.0,57,-99.99,,,0.32,weatherlink.com 1.10,2013-05-10 17:59:00,
2013-05-10 12:14:00,78.7,63.0,29.97,North,1,0.0,-999.0,59,-99.99,,,0.32,weatherlink.com 1.10,2013-05-10 18:14:00,
2013-05-10 12:29:00,79.0,64.0,29.96,NE,38,0.0,-999.0,61,-99.99,,,0.32,weatherlink.com 1.10,2013-05-10 18:29:00,
2013-05-10 12:44:00,78.3,64.0,29.95,NNE,14,0.0,-999.0,61,-99.99,,,0.32,weatherlink.com 1.10,2013-05-10 18:44:00,
2013-05-10 12:59:00,78.4,63.0,29.95,North,351,0.0,-999.0,60,-99.99,,,0.32,weatherlink.com 1.10,2013-05-10 18:59:00,
2013-05-10 13:14:00,78.9,63.0,29.94,NE,51,0.0,-999.0,59,-99.99,,,0.32,weatherlink.com 1.10,2013-05-10 19:14:00,
2013-05-10 13:29:00,80.0,63.0,29.94,NE,37,0.0,-999.0,57,-99.99,,,0.32,weatherlink.com 1.10,2013-05-10 19:29:00,
2013-05-10 13:44:00,80.2,63.0,29.93,East,83,0.0,-999.0,57,-99.99,,,0.32,weatherlink.com 1.10,2013-05-10 19:44:00,
2013-05-10 13:59:00,81.1,63.0,29.93,NNW,340,0.0,-999.0,55,-99.99,,,0.32,weatherlink.com 1.10,2013-05-10 19:59:00,
2013-05-10 14:14:00,80.9,63.0,29.92,NE,34,0.0,-999.0,55,-99.99,,,0.32,weatherlink.com 1.10,2013-05-10 20:14:00,
2013-05-10 14:29:00,81.9,62.0,29.91,SE,139,0.0,-999.0,52,-99.99,,,0.32,weatherlink.com 1.10,2013-05-10 20:29:00,
2013-05-10 14:44:00,81.8,61.0,29.91,East,80,0.0,-999.0,50,-99.99,,,0.32,weatherlink.com 1.10,2013-05-10 20:44:00,
2013-05-10 14:59:00,82.1,62.0,29.91,NNE,30,0.0,-999.0,51,-99.99,,,0.32,weatherlink.com 1.10,2013-05-10 20:59:00,
2013-05-10 15:14:00,82.2,62.0,29.90,NW,311,0.0,-999.0,50,-99.99,,,0.32,weatherlink.com 1.10,2013-05-10 21:14:00,
2013-05-10 15:29:00,83.2,61.0,29.91,ESE,121,0.0,-999.0,48,-99.99,,,0.32,weatherlink.com 1.10,2013-05-10 21:29:00,
2013-05-10 15:44:00,82.0,63.0,29.91,North,8,0.0,-999.0,52,-99.99,,,0.32,weatherlink.com 1.10,2013-05-10 21:44:00,
2013-05-10 15:59:00,83.2,61.0,29.89,NE,36,0.0,-999.0,48,-99.99,,,0.32,weatherlink.com 1.10,2013-05-10 21:59:00,
2013-05-10 16:14:00,81.4,61.0,29.88,NNE,19,0.0,-999.0,50,-99.99,,,0.32,weatherlink.com 1.10,2013-05-10 22:14:00,
2013-05-10 16:29:00,81.2,62.0,29.88,NE,42,0.0,-999.0,52,-99.99,,,0.32,weatherlink.com 1.10,2013-05-10 22:29:00,
2013-05-10 16:44:00,80.8,62.0,29.89,NNW,340,0.0,-999.0,53,-99.99,,,0.32,weatherlink.com 1.10,2013-05-10 22:44:00,
2013-05-10 16:59:00,80.0,60.0,29.89,North,355,0.0,-999.0,51,-99.99,,,0.32,weatherlink.com 1.10,2013-05-10 22:59:00,
2013-05-10 17:14:00,79.0,60.0,29.88,North,354,0.0,-999.0,52,-99.99,,,0.32,weatherlink.com 1.10,2013-05-10 23:14:00,
2013-05-10 17:29:00,78.4,60.0,29.91,North,1,0.0,-999.0,53,-99.99,,,0.32,weatherlink.com 1.10,2013-05-10 23:29:00,
2013-05-10 17:44:00,77.6,60.0,29.94,NNW,331,0.0,-999.0,55,-99.99,,,0.32,weatherlink.com 1.10,2013-05-10 23:44:00,
2013-05-10 17:59:00,70.3,58.0,29.96,NW,309,0.0,-999.0,65,-99.99,,,0.32,weatherlink.com 1.10,2013-05-10 23:59:00,
2013-05-10 18:14:00,67.6,58.0,29.97,NNW,344,0.0,-999.0,72,-99.99,,,0.32,weatherlink.com 1.10,2013-05-11 00:14:00,
2013-05-10 18:29:00,66.5,58.0,29.98,North,353,0.0,-999.0,73,-99.99,,,0.32,weatherlink.com 1.10,2013-05-11 00:29:00,
2013-05-10 18:44:00,66.0,58.0,29.99,NNE,24,0.0,-999.0,74,-99.99,,,0.32,weatherlink.com 1.10,2013-05-11 00:44:00,
2013-05-10 18:59:00,65.5,58.0,30.01,NNW,332,0.0,-999.0,76,-99.99,,,0.32,weatherlink.com 1.10,2013-05-11 00:59:00,
2013-05-10 19:14:00,65.0,58.0,30.02,NNE,22,0.0,-999.0,77,-99.99,,,0.32,weatherlink.com 1.10,2013-05-11 01:14:00,
2013-05-10 19:29:00,64.8,58.0,30.04,SE,132,0.0,-999.0,78,-99.99,,,0.32,weatherlink.com 1.10,2013-05-11 01:29:00,
2013-05-10 19:44:00,64.3,58.0,30.03,ESE,114,0.0,-999.0,80,-99.99,,,0.32,weatherlink.com 1.10,2013-05-11 01:44:00,
2013-05-10 19:59:00,63.9,58.0,30.03,ESE,114,0.0,-999.0,81,-99.99,,,0.32,weatherlink.com 1.10,2013-05-11 01:59:00,
2013-05-10 20:14:00,63.4,58.0,30.03,North,352,0.0,-999.0,82,-99.99,,,0.32,weatherlink.com 1.10,2013-05-11 02:14:00,
2013-05-10 20:29:00,63.0,58.0,30.03,North,6,0.0,-999.0,83,-99.99,,,0.32,weatherlink.com 1.10,2013-05-11 02:29:00,
2013-05-10 20:44:00,62.6,58.0,30.04,NNE,12,0.0,-999.0,84,-99.99,,,0.32,weatherlink.com 1.10,2013-05-11 02:44:00,
2013-05-10 20:59:00,62.7,58.0,30.04,North,1,0.0,-999.0,85,-99.99,,,0.32,weatherlink.com 1.10,2013-05-11 02:59:00,
2013-05-10 21:14:00,62.7,58.0,30.05,NNE,22,0.0,-999.0,85,-99.99,,,0.32,weatherlink.com 1.10,2013-05-11 03:14:00,
2013-05-10 21:29:00,62.6,58.0,30.05,NE,49,0.0,-999.0,86,-99.99,,,0.32,weatherlink.com 1.10,2013-05-11 03:29:00,
2013-05-10 21:44:00,62.5,58.0,30.05,NNW,345,0.0,-999.0,86,-99.99,,,0.32,weatherlink.com 1.10,2013-05-11 03:44:00,
2013-05-10 21:59:00,62.4,58.0,30.05,North,354,0.0,-999.0,86,-99.99,,,0.32,weatherlink.com 1.10,2013-05-11 03:59:00,
2013-05-10 22:14:00,62.3,58.0,30.05,North,354,0.0,-999.0,86,-99.99,,,0.32,weatherlink.com 1.10,2013-05-11 04:14:00,
2013-05-10 22:29:00,62.0,58.0,30.05,North,354,0.0,-999.0,87,-99.99,,,0.32,weatherlink.com 1.10,2013-05-11 04:29:00,
2013-05-10 22:44:00,61.7,58.0,30.04,North,354,0.0,-999.0,87,-99.99,,,0.32,weatherlink.com 1.10,2013-05-11 04:44:00,
2013-05-10 22:59:00,61.3,57.0,30.04,North,354,0.0,-999.0,87,-99.99,,,0.32,weatherlink.com 1.10,2013-05-11 04:59:00,
2013-05-10 23:14:00,61.0,57.0,30.03,North,354,0.0,-999.0,86,-99.99,,,0.00,weatherlink.com 1.10,2013-05-11 05:14:00,
2013-05-10 23:29:00,60.7,57.0,30.04,North,354,0.0,-999.0,86,-99.99,,,0.00,weatherlink.com 1.10,2013-05-11 05:29:00,
2013-05-10 23:44:00,60.7,57.0,30.06,North,354,0.0,-999.0,87,-99.99,,,0.00,weatherlink.com 1.10,2013-05-11 05:44:00,
2013-05-10 23:59:00,60.8,57.0,30.07,North,354,0.0,-999.0,86,-99.99,,,0.00,weatherlink.com 1.10,2013-05-11 05:59:00,